sensor_id;sensor_type;location;lat;lon;timestamp;pressure;altitude;pressure_sealevel;temperature;humidity
5595;BME280;1003;48.002;7.788;2023-03-16T00:00:05;99655.50;;;2.49;100.00
5595;BME280;1003;48.002;7.788;2023-03-16T00:02:34;99652.13;;;2.47;100.00
5595;BME280;1003;48.002;7.788;2023-03-16T00:05:01;99642.66;;;2.33;100.00
5595;BME280;1003;48.002;7.788;2023-03-16T00:07:28;99652.84;;;2.16;100.00
5595;BME280;1003;48.002;7.788;2023-03-16T00:09:55;99651.03;;;2.10;100.00
5595;BME280;1003;48.002;7.788;2023-03-16T00:12:22;99649.28;;;2.07;100.00
5595;BME280;1003;48.002;7.788;2023-03-16T00:14:52;99656.69;;;2.06;100.00
5595;BME280;1003;48.002;7.788;2023-03-16T00:17:20;99656.91;;;1.88;100.00
5595;BME280;1003;48.002;7.788;2023-03-16T00:19:49;99655.38;;;1.92;100.00
5595;BME280;1003;48.002;7.788;2023-03-16T00:22:20;99641.34;;;1.67;100.00
5595;BME280;1003;48.002;7.788;2023-03-16T00:24:48;99650.84;;;1.54;100.00
5595;BME280;1003;48.002;7.788;2023-03-16T00:27:15;99651.19;;;1.40;100.00
5595;BME280;1003;48.002;7.788;2023-03-16T00:29:44;99653.53;;;1.35;100.00
5595;BME280;1003;48.002;7.788;2023-03-16T00:32:16;99655.00;;;1.30;100.00
5595;BME280;1003;48.002;7.788;2023-03-16T00:34:45;99669.22;;;1.36;100.00
5595;BME280;1003;48.002;7.788;2023-03-16T00:37:15;99671.22;;;1.46;100.00
5595;BME280;1003;48.002;7.788;2023-03-16T00:39:44;99668.66;;;1.44;100.00
5595;BME280;1003;48.002;7.788;2023-03-16T00:42:14;99667.09;;;1.22;100.00
5595;BME280;1003;48.002;7.788;2023-03-16T00:44:41;99655.97;;;1.11;100.00
5595;BME280;1003;48.002;7.788;2023-03-16T00:47:09;99657.22;;;1.00;100.00
5595;BME280;1003;48.002;7.788;2023-03-16T00:49:42;99644.41;;;0.88;100.00
5595;BME280;1003;48.002;7.788;2023-03-16T00:52:12;99641.81;;;0.85;100.00
5595;BME280;1003;48.002;7.788;2023-03-16T00:54:41;99650.16;;;0.87;100.00
5595;BME280;1003;48.002;7.788;2023-03-16T00:57:10;99645.69;;;1.00;100.00
5595;BME280;1003;48.002;7.788;2023-03-16T00:59:38;99633.56;;;0.84;100.00
5595;BME280;1003;48.002;7.788;2023-03-16T01:02:07;99637.66;;;0.84;100.00
5595;BME280;1003;48.002;7.788;2023-03-16T01:04:35;99650.88;;;0.84;100.00
5595;BME280;1003;48.002;7.788;2023-03-16T01:07:04;99659.31;;;0.89;100.00
5595;BME280;1003;48.002;7.788;2023-03-16T01:09:33;99659.53;;;0.73;100.00
5595;BME280;1003;48.002;7.788;2023-03-16T01:12:02;99640.03;;;0.58;100.00
5595;BME280;1003;48.002;7.788;2023-03-16T01:14:31;99645.38;;;0.46;100.00
5595;BME280;1003;48.002;7.788;2023-03-16T01:16:59;99640.00;;;0.36;100.00
5595;BME280;1003;48.002;7.788;2023-03-16T01:19:27;99638.09;;;0.29;100.00
5595;BME280;1003;48.002;7.788;2023-03-16T01:21:54;99631.59;;;0.31;100.00
5595;BME280;1003;48.002;7.788;2023-03-16T01:24:23;99643.50;;;0.41;100.00
5595;BME280;1003;48.002;7.788;2023-03-16T01:26:50;99643.16;;;0.32;100.00
5595;BME280;1003;48.002;7.788;2023-03-16T01:29:17;99630.09;;;0.13;100.00
5595;BME280;1003;48.002;7.788;2023-03-16T01:31:44;99632.19;;;0.04;100.00
5595;BME280;1003;48.002;7.788;2023-03-16T01:34:11;99623.44;;;-0.10;100.00
5595;BME280;1003;48.002;7.788;2023-03-16T01:36:45;99621.28;;;-0.22;100.00
5595;BME280;1003;48.002;7.788;2023-03-16T01:39:14;99618.22;;;-0.37;100.00
5595;BME280;1003;48.002;7.788;2023-03-16T01:41:44;99616.06;;;-0.30;100.00
5595;BME280;1003;48.002;7.788;2023-03-16T01:44:14;99623.28;;;-0.34;100.00
5595;BME280;1003;48.002;7.788;2023-03-16T01:46:41;99608.94;;;-0.43;100.00
5595;BME280;1003;48.002;7.788;2023-03-16T01:49:11;99622.06;;;-0.44;100.00
5595;BME280;1003;48.002;7.788;2023-03-16T01:51:42;99622.00;;;-0.45;100.00
5595;BME280;1003;48.002;7.788;2023-03-16T01:54:22;99620.31;;;-0.46;100.00
5595;BME280;1003;48.002;7.788;2023-03-16T01:57:04;99621.91;;;-0.48;100.00
5595;BME280;1003;48.002;7.788;2023-03-16T01:59:39;99612.72;;;-0.51;100.00
5595;BME280;1003;48.002;7.788;2023-03-16T02:02:09;99622.47;;;-0.54;100.00
5595;BME280;1003;48.002;7.788;2023-03-16T02:04:49;99618.97;;;-0.59;100.00
5595;BME280;1003;48.002;7.788;2023-03-16T02:07:20;99614.28;;;-0.53;100.00
5595;BME280;1003;48.002;7.788;2023-03-16T02:09:52;99613.19;;;-0.60;100.00
5595;BME280;1003;48.002;7.788;2023-03-16T02:12:23;99607.28;;;-0.63;100.00
5595;BME280;1003;48.002;7.788;2023-03-16T02:14:51;99602.09;;;-0.69;100.00
5595;BME280;1003;48.002;7.788;2023-03-16T02:17:24;99595.47;;;-0.70;100.00
5595;BME280;1003;48.002;7.788;2023-03-16T02:20:05;99592.53;;;-0.62;100.00
5595;BME280;1003;48.002;7.788;2023-03-16T02:22:43;99589.38;;;-0.59;100.00
5595;BME280;1003;48.002;7.788;2023-03-16T02:25:14;99575.00;;;-0.68;100.00
5595;BME280;1003;48.002;7.788;2023-03-16T02:27:53;99568.94;;;-0.55;100.00
5595;BME280;1003;48.002;7.788;2023-03-16T02:30:24;99554.38;;;-0.49;100.00
5595;BME280;1003;48.002;7.788;2023-03-16T02:32:53;99543.66;;;-0.49;100.00
5595;BME280;1003;48.002;7.788;2023-03-16T02:35:20;99530.59;;;-0.47;100.00
5595;BME280;1003;48.002;7.788;2023-03-16T02:37:47;99528.78;;;-0.51;100.00
5595;BME280;1003;48.002;7.788;2023-03-16T02:40:21;99517.09;;;-0.55;100.00
5595;BME280;1003;48.002;7.788;2023-03-16T02:42:55;99507.41;;;-0.50;100.00
5595;BME280;1003;48.002;7.788;2023-03-16T02:45:28;99503.53;;;-0.44;100.00
5595;BME280;1003;48.002;7.788;2023-03-16T02:48:00;99487.38;;;-0.37;100.00
5595;BME280;1003;48.002;7.788;2023-03-16T02:50:30;99485.13;;;-0.31;100.00
5595;BME280;1003;48.002;7.788;2023-03-16T02:52:57;99476.34;;;-0.23;100.00
5595;BME280;1003;48.002;7.788;2023-03-16T02:55:24;99466.22;;;-0.31;100.00
5595;BME280;1003;48.002;7.788;2023-03-16T02:57:51;99446.31;;;-0.34;100.00
5595;BME280;1003;48.002;7.788;2023-03-16T03:00:19;99443.75;;;-0.14;100.00
5595;BME280;1003;48.002;7.788;2023-03-16T03:02:48;99447.69;;;0.03;100.00
5595;BME280;1003;48.002;7.788;2023-03-16T03:05:17;99451.94;;;0.07;100.00
5595;BME280;1003;48.002;7.788;2023-03-16T03:07:44;99451.94;;;0.07;100.00
5595;BME280;1003;48.002;7.788;2023-03-16T03:10:11;99452.63;;;0.03;100.00
5595;BME280;1003;48.002;7.788;2023-03-16T03:12:38;99456.16;;;-0.13;100.00
5595;BME280;1003;48.002;7.788;2023-03-16T03:15:07;99453.56;;;-0.38;100.00
5595;BME280;1003;48.002;7.788;2023-03-16T03:17:34;99451.13;;;-0.59;100.00
5595;BME280;1003;48.002;7.788;2023-03-16T03:20:04;99449.84;;;-0.70;100.00
5595;BME280;1003;48.002;7.788;2023-03-16T03:22:38;99437.22;;;-0.78;100.00
5595;BME280;1003;48.002;7.788;2023-03-16T03:25:06;99443.13;;;-0.74;100.00
5595;BME280;1003;48.002;7.788;2023-03-16T03:27:34;99439.50;;;-0.83;100.00
5595;BME280;1003;48.002;7.788;2023-03-16T03:30:01;99437.09;;;-0.81;100.00
5595;BME280;1003;48.002;7.788;2023-03-16T03:32:28;99436.16;;;-0.85;100.00
5595;BME280;1003;48.002;7.788;2023-03-16T03:34:56;99424.34;;;-0.92;100.00
5595;BME280;1003;48.002;7.788;2023-03-16T03:37:24;99431.03;;;-0.89;100.00
5595;BME280;1003;48.002;7.788;2023-03-16T03:39:51;99419.25;;;-0.96;100.00
5595;BME280;1003;48.002;7.788;2023-03-16T03:42:18;99415.94;;;-0.97;100.00
5595;BME280;1003;48.002;7.788;2023-03-16T03:44:48;99392.28;;;-1.13;100.00
5595;BME280;1003;48.002;7.788;2023-03-16T03:47:15;99382.25;;;-1.17;100.00
5595;BME280;1003;48.002;7.788;2023-03-16T03:49:42;99353.00;;;-1.29;100.00
5595;BME280;1003;48.002;7.788;2023-03-16T03:52:10;99336.41;;;-1.33;100.00
5595;BME280;1003;48.002;7.788;2023-03-16T03:54:38;99348.38;;;-1.21;100.00
5595;BME280;1003;48.002;7.788;2023-03-16T03:57:06;99339.13;;;-1.27;100.00
5595;BME280;1003;48.002;7.788;2023-03-16T03:59:33;99342.38;;;-1.28;100.00
5595;BME280;1003;48.002;7.788;2023-03-16T04:02:07;99321.97;;;-1.45;100.00
5595;BME280;1003;48.002;7.788;2023-03-16T04:04:34;99341.75;;;-1.43;100.00
5595;BME280;1003;48.002;7.788;2023-03-16T04:07:02;99351.84;;;-1.37;100.00
5595;BME280;1003;48.002;7.788;2023-03-16T04:09:29;99362.69;;;-1.34;100.00
5595;BME280;1003;48.002;7.788;2023-03-16T04:12:00;99382.94;;;-1.41;100.00
5595;BME280;1003;48.002;7.788;2023-03-16T04:14:28;99389.28;;;-1.46;100.00
5595;BME280;1003;48.002;7.788;2023-03-16T04:16:56;99390.91;;;-1.46;100.00
5595;BME280;1003;48.002;7.788;2023-03-16T04:19:23;99398.13;;;-1.51;100.00
5595;BME280;1003;48.002;7.788;2023-03-16T04:21:51;99403.03;;;-1.51;100.00
5595;BME280;1003;48.002;7.788;2023-03-16T04:24:18;99407.03;;;-1.54;100.00
5595;BME280;1003;48.002;7.788;2023-03-16T04:26:47;99416.09;;;-1.53;100.00
5595;BME280;1003;48.002;7.788;2023-03-16T04:29:16;99430.16;;;-1.51;100.00
5595;BME280;1003;48.002;7.788;2023-03-16T04:31:44;99424.84;;;-1.60;100.00
5595;BME280;1003;48.002;7.788;2023-03-16T04:34:12;99430.28;;;-1.67;100.00
5595;BME280;1003;48.002;7.788;2023-03-16T04:36:39;99446.19;;;-1.61;100.00
5595;BME280;1003;48.002;7.788;2023-03-16T04:39:07;99464.94;;;-1.45;100.00
5595;BME280;1003;48.002;7.788;2023-03-16T04:41:35;99465.53;;;-1.50;100.00
5595;BME280;1003;48.002;7.788;2023-03-16T04:44:02;99469.69;;;-1.49;100.00
5595;BME280;1003;48.002;7.788;2023-03-16T04:46:31;99474.19;;;-1.59;100.00
5595;BME280;1003;48.002;7.788;2023-03-16T04:48:58;99484.22;;;-1.73;100.00
5595;BME280;1003;48.002;7.788;2023-03-16T04:51:27;99491.72;;;-1.72;100.00
5595;BME280;1003;48.002;7.788;2023-03-16T04:53:55;99500.00;;;-1.70;100.00
5595;BME280;1003;48.002;7.788;2023-03-16T04:56:22;99518.75;;;-1.54;100.00
5595;BME280;1003;48.002;7.788;2023-03-16T04:58:50;99528.72;;;-1.51;100.00
5595;BME280;1003;48.002;7.788;2023-03-16T05:01:17;99534.91;;;-1.61;100.00
5595;BME280;1003;48.002;7.788;2023-03-16T05:03:46;99550.34;;;-1.65;100.00
5595;BME280;1003;48.002;7.788;2023-03-16T05:06:14;99567.69;;;-1.62;100.00
5595;BME280;1003;48.002;7.788;2023-03-16T05:08:41;99579.66;;;-1.51;100.00
5595;BME280;1003;48.002;7.788;2023-03-16T05:11:09;99587.50;;;-1.60;100.00
5595;BME280;1003;48.002;7.788;2023-03-16T05:13:36;99596.22;;;-1.49;100.00
5595;BME280;1003;48.002;7.788;2023-03-16T05:16:03;99603.72;;;-1.46;100.00
5595;BME280;1003;48.002;7.788;2023-03-16T05:18:32;99612.63;;;-1.49;100.00
5595;BME280;1003;48.002;7.788;2023-03-16T05:21:00;99616.72;;;-1.50;100.00
5595;BME280;1003;48.002;7.788;2023-03-16T05:23:27;99624.84;;;-1.51;100.00
5595;BME280;1003;48.002;7.788;2023-03-16T05:25:54;99625.16;;;-1.45;100.00
5595;BME280;1003;48.002;7.788;2023-03-16T05:28:24;99638.72;;;-1.35;100.00
5595;BME280;1003;48.002;7.788;2023-03-16T05:30:51;99644.38;;;-1.38;100.00
5595;BME280;1003;48.002;7.788;2023-03-16T05:33:18;99655.91;;;-1.37;100.00
5595;BME280;1003;48.002;7.788;2023-03-16T05:35:46;99665.16;;;-1.50;100.00
5595;BME280;1003;48.002;7.788;2023-03-16T05:38:14;99676.94;;;-1.45;100.00
5595;BME280;1003;48.002;7.788;2023-03-16T05:40:41;99672.00;;;-1.45;100.00
5595;BME280;1003;48.002;7.788;2023-03-16T05:43:08;99687.47;;;-1.47;100.00
5595;BME280;1003;48.002;7.788;2023-03-16T05:45:37;99676.56;;;-1.52;100.00
5595;BME280;1003;48.002;7.788;2023-03-16T05:48:05;99697.00;;;-1.55;100.00
5595;BME280;1003;48.002;7.788;2023-03-16T05:50:32;99691.56;;;-1.66;100.00
5595;BME280;1003;48.002;7.788;2023-03-16T05:52:59;99698.31;;;-1.62;100.00
5595;BME280;1003;48.002;7.788;2023-03-16T05:55:27;99701.00;;;-1.57;100.00
5595;BME280;1003;48.002;7.788;2023-03-16T05:57:54;99706.13;;;-1.52;100.00
5595;BME280;1003;48.002;7.788;2023-03-16T06:00:23;99717.22;;;-1.44;100.00
5595;BME280;1003;48.002;7.788;2023-03-16T06:02:52;99725.78;;;-1.36;100.00
5595;BME280;1003;48.002;7.788;2023-03-16T06:05:20;99726.16;;;-1.28;100.00
5595;BME280;1003;48.002;7.788;2023-03-16T06:07:49;99737.47;;;-1.14;100.00
5595;BME280;1003;48.002;7.788;2023-03-16T06:10:17;99742.09;;;-1.02;100.00
5595;BME280;1003;48.002;7.788;2023-03-16T06:12:46;99754.50;;;-0.83;100.00
5595;BME280;1003;48.002;7.788;2023-03-16T06:15:13;99766.03;;;-0.64;100.00
5595;BME280;1003;48.002;7.788;2023-03-16T06:17:41;99786.91;;;-0.38;100.00
5595;BME280;1003;48.002;7.788;2023-03-16T06:20:10;99797.25;;;-0.08;100.00
5595;BME280;1003;48.002;7.788;2023-03-16T06:22:38;99815.56;;;0.36;100.00
5595;BME280;1003;48.002;7.788;2023-03-16T06:25:08;99822.25;;;0.80;100.00
5595;BME280;1003;48.002;7.788;2023-03-16T06:27:36;99824.75;;;1.23;100.00
5595;BME280;1003;48.002;7.788;2023-03-16T06:30:07;99843.16;;;1.75;100.00
5595;BME280;1003;48.002;7.788;2023-03-16T06:32:34;99812.03;;;1.59;100.00
5595;BME280;1003;48.002;7.788;2023-03-16T06:35:03;99794.94;;;1.67;100.00
5595;BME280;1003;48.002;7.788;2023-03-16T06:37:31;99778.72;;;1.51;100.00
5595;BME280;1003;48.002;7.788;2023-03-16T06:39:58;99759.63;;;1.48;100.00
5595;BME280;1003;48.002;7.788;2023-03-16T06:42:25;99739.09;;;1.51;100.00
5595;BME280;1003;48.002;7.788;2023-03-16T06:44:53;99704.63;;;1.57;100.00
5595;BME280;1003;48.002;7.788;2023-03-16T06:47:21;99694.25;;;1.93;100.00
5595;BME280;1003;48.002;7.788;2023-03-16T06:49:48;99662.50;;;1.82;100.00
5595;BME280;1003;48.002;7.788;2023-03-16T06:52:16;99640.00;;;1.76;100.00
5595;BME280;1003;48.002;7.788;2023-03-16T06:54:43;99614.16;;;1.68;100.00
5595;BME280;1003;48.002;7.788;2023-03-16T06:57:10;99602.28;;;1.83;100.00
5595;BME280;1003;48.002;7.788;2023-03-16T06:59:38;99575.09;;;1.87;100.00
5595;BME280;1003;48.002;7.788;2023-03-16T07:02:06;99559.34;;;2.12;100.00
5595;BME280;1003;48.002;7.788;2023-03-16T07:04:34;99532.94;;;2.72;100.00
5595;BME280;1003;48.002;7.788;2023-03-16T07:07:01;99551.22;;;3.75;100.00
5595;BME280;1003;48.002;7.788;2023-03-16T07:09:28;99557.19;;;4.59;100.00
5595;BME280;1003;48.002;7.788;2023-03-16T07:11:56;99618.19;;;5.23;100.00
5595;BME280;1003;48.002;7.788;2023-03-16T07:14:23;99674.78;;;5.74;100.00
5595;BME280;1003;48.002;7.788;2023-03-16T07:16:51;99711.03;;;6.02;100.00
5595;BME280;1003;48.002;7.788;2023-03-16T07:19:18;99695.56;;;6.21;100.00
5595;BME280;1003;48.002;7.788;2023-03-16T07:21:47;99639.41;;;5.96;100.00
5595;BME280;1003;48.002;7.788;2023-03-16T07:24:14;99572.97;;;5.02;100.00
5595;BME280;1003;48.002;7.788;2023-03-16T07:26:41;99565.13;;;5.29;100.00
5595;BME280;1003;48.002;7.788;2023-03-16T07:29:08;99548.59;;;4.85;100.00
5595;BME280;1003;48.002;7.788;2023-03-16T07:31:37;99515.56;;;4.11;100.00
5595;BME280;1003;48.002;7.788;2023-03-16T07:34:05;99494.47;;;3.93;100.00
5595;BME280;1003;48.002;7.788;2023-03-16T07:36:32;99474.25;;;4.17;100.00
5595;BME280;1003;48.002;7.788;2023-03-16T07:39:00;99470.69;;;4.47;100.00
5595;BME280;1003;48.002;7.788;2023-03-16T07:41:27;99454.75;;;4.39;100.00
5595;BME280;1003;48.002;7.788;2023-03-16T07:43:54;99445.59;;;3.94;100.00
5595;BME280;1003;48.002;7.788;2023-03-16T07:46:23;99456.72;;;4.13;100.00
5595;BME280;1003;48.002;7.788;2023-03-16T07:48:50;99484.94;;;4.56;100.00
5595;BME280;1003;48.002;7.788;2023-03-16T07:51:17;99484.69;;;4.87;100.00
5595;BME280;1003;48.002;7.788;2023-03-16T07:53:44;99480.63;;;4.91;100.00
5595;BME280;1003;48.002;7.788;2023-03-16T07:56:12;99468.00;;;4.83;100.00
5595;BME280;1003;48.002;7.788;2023-03-16T07:58:40;99452.03;;;4.70;100.00
5595;BME280;1003;48.002;7.788;2023-03-16T08:01:07;99449.47;;;5.16;100.00
5595;BME280;1003;48.002;7.788;2023-03-16T08:03:35;99442.78;;;5.13;100.00
5595;BME280;1003;48.002;7.788;2023-03-16T08:06:02;99445.44;;;5.24;100.00
5595;BME280;1003;48.002;7.788;2023-03-16T08:08:30;99445.00;;;4.96;100.00
5595;BME280;1003;48.002;7.788;2023-03-16T08:10:57;99437.06;;;5.20;100.00
5595;BME280;1003;48.002;7.788;2023-03-16T08:13:26;99446.53;;;4.88;100.00
5595;BME280;1003;48.002;7.788;2023-03-16T08:15:55;99464.31;;;5.10;100.00
5595;BME280;1003;48.002;7.788;2023-03-16T08:18:27;99457.47;;;4.98;100.00
5595;BME280;1003;48.002;7.788;2023-03-16T08:20:56;99462.31;;;5.42;100.00
5595;BME280;1003;48.002;7.788;2023-03-16T08:23:24;99457.22;;;5.92;100.00
5595;BME280;1003;48.002;7.788;2023-03-16T08:25:52;99452.97;;;5.86;100.00
5595;BME280;1003;48.002;7.788;2023-03-16T08:28:20;99441.84;;;5.60;100.00
5595;BME280;1003;48.002;7.788;2023-03-16T08:30:51;99457.78;;;6.36;100.00
5595;BME280;1003;48.002;7.788;2023-03-16T08:33:19;99454.03;;;6.02;100.00
5595;BME280;1003;48.002;7.788;2023-03-16T08:35:46;99450.97;;;6.21;100.00
5595;BME280;1003;48.002;7.788;2023-03-16T08:38:14;99450.53;;;5.91;100.00
5595;BME280;1003;48.002;7.788;2023-03-16T08:40:42;99456.13;;;5.73;100.00
5595;BME280;1003;48.002;7.788;2023-03-16T08:43:13;99454.22;;;6.16;100.00
5595;BME280;1003;48.002;7.788;2023-03-16T08:45:41;99436.69;;;6.10;100.00
5595;BME280;1003;48.002;7.788;2023-03-16T08:48:11;99436.78;;;6.19;100.00
5595;BME280;1003;48.002;7.788;2023-03-16T08:50:40;99431.06;;;6.29;100.00
5595;BME280;1003;48.002;7.788;2023-03-16T08:53:08;99420.63;;;6.62;100.00
5595;BME280;1003;48.002;7.788;2023-03-16T08:55:35;99402.41;;;6.77;100.00
5595;BME280;1003;48.002;7.788;2023-03-16T08:58:03;99393.31;;;6.82;100.00
5595;BME280;1003;48.002;7.788;2023-03-16T09:00:30;99381.16;;;7.31;100.00
5595;BME280;1003;48.002;7.788;2023-03-16T09:02:57;99367.56;;;6.89;100.00
5595;BME280;1003;48.002;7.788;2023-03-16T09:05:26;99357.19;;;7.65;100.00
5595;BME280;1003;48.002;7.788;2023-03-16T09:07:54;99338.16;;;8.21;100.00
5595;BME280;1003;48.002;7.788;2023-03-16T09:10:21;99304.78;;;8.22;100.00
5595;BME280;1003;48.002;7.788;2023-03-16T09:12:49;99299.00;;;8.70;100.00
5595;BME280;1003;48.002;7.788;2023-03-16T09:15:18;99272.25;;;8.86;100.00
5595;BME280;1003;48.002;7.788;2023-03-16T09:17:47;99238.88;;;8.29;100.00
5595;BME280;1003;48.002;7.788;2023-03-16T09:20:16;99225.50;;;8.63;100.00
5595;BME280;1003;48.002;7.788;2023-03-16T09:22:47;99212.09;;;7.62;100.00
5595;BME280;1003;48.002;7.788;2023-03-16T09:25:14;99211.31;;;7.89;100.00
5595;BME280;1003;48.002;7.788;2023-03-16T09:27:41;99209.66;;;8.43;100.00
5595;BME280;1003;48.002;7.788;2023-03-16T09:30:11;99187.94;;;7.90;100.00
5595;BME280;1003;48.002;7.788;2023-03-16T09:32:39;99198.78;;;7.65;100.00
5595;BME280;1003;48.002;7.788;2023-03-16T09:35:07;99198.81;;;8.04;100.00
5595;BME280;1003;48.002;7.788;2023-03-16T09:37:34;99192.97;;;8.04;100.00
5595;BME280;1003;48.002;7.788;2023-03-16T09:40:05;99203.75;;;7.63;100.00
5595;BME280;1003;48.002;7.788;2023-03-16T09:42:36;99197.06;;;7.57;100.00
5595;BME280;1003;48.002;7.788;2023-03-16T09:45:17;99192.94;;;7.76;100.00
5595;BME280;1003;48.002;7.788;2023-03-16T09:47:51;99197.13;;;7.77;100.00
5595;BME280;1003;48.002;7.788;2023-03-16T09:50:27;99202.16;;;8.02;100.00
5595;BME280;1003;48.002;7.788;2023-03-16T09:53:04;99191.28;;;8.10;100.00
5595;BME280;1003;48.002;7.788;2023-03-16T09:55:37;99177.09;;;8.45;100.00
5595;BME280;1003;48.002;7.788;2023-03-16T09:58:17;99161.25;;;8.35;100.00
5595;BME280;1003;48.002;7.788;2023-03-16T10:00:57;99139.56;;;8.17;100.00
5595;BME280;1003;48.002;7.788;2023-03-16T10:03:46;99132.84;;;8.31;100.00
5595;BME280;1003;48.002;7.788;2023-03-16T10:06:16;99123.59;;;8.73;100.00
5595;BME280;1003;48.002;7.788;2023-03-16T10:08:51;99123.69;;;8.47;100.00
5595;BME280;1003;48.002;7.788;2023-03-16T10:11:31;99117.72;;;8.83;100.00
5595;BME280;1003;48.002;7.788;2023-03-16T10:14:10;99126.03;;;8.87;100.00
5595;BME280;1003;48.002;7.788;2023-03-16T10:16:46;99121.88;;;8.84;100.00
5595;BME280;1003;48.002;7.788;2023-03-16T10:19:21;99136.09;;;8.81;100.00
5595;BME280;1003;48.002;7.788;2023-03-16T10:21:55;99145.09;;;9.23;100.00
5595;BME280;1003;48.002;7.788;2023-03-16T10:24:40;99132.56;;;9.23;100.00
5595;BME280;1003;48.002;7.788;2023-03-16T10:27:18;99113.19;;;9.48;100.00
5595;BME280;1003;48.002;7.788;2023-03-16T10:29:46;99097.47;;;9.18;100.00
5595;BME280;1003;48.002;7.788;2023-03-16T10:32:16;99091.03;;;8.65;100.00
5595;BME280;1003;48.002;7.788;2023-03-16T10:34:52;99091.03;;;8.65;100.00
5595;BME280;1003;48.002;7.788;2023-03-16T10:37:22;99094.38;;;8.74;100.00
5595;BME280;1003;48.002;7.788;2023-03-16T10:39:50;99090.13;;;8.86;100.00
5595;BME280;1003;48.002;7.788;2023-03-16T10:42:20;99081.47;;;9.39;100.00
5595;BME280;1003;48.002;7.788;2023-03-16T10:44:47;99063.31;;;9.05;100.00
5595;BME280;1003;48.002;7.788;2023-03-16T10:47:22;99054.97;;;8.97;100.00
5595;BME280;1003;48.002;7.788;2023-03-16T10:49:50;99057.47;;;9.00;100.00
5595;BME280;1003;48.002;7.788;2023-03-16T10:52:23;99054.91;;;9.11;100.00
5595;BME280;1003;48.002;7.788;2023-03-16T10:54:55;99056.94;;;9.72;100.00
5595;BME280;1003;48.002;7.788;2023-03-16T10:57:29;99053.50;;;9.84;100.00
5595;BME280;1003;48.002;7.788;2023-03-16T11:00:04;99045.56;;;10.27;100.00
5595;BME280;1003;48.002;7.788;2023-03-16T11:02:41;99036.00;;;10.55;100.00
5595;BME280;1003;48.002;7.788;2023-03-16T11:05:27;99024.44;;;10.43;100.00
5595;BME280;1003;48.002;7.788;2023-03-16T11:08:00;99020.47;;;10.22;100.00
5595;BME280;1003;48.002;7.788;2023-03-16T11:10:32;99010.31;;;10.33;100.00
5595;BME280;1003;48.002;7.788;2023-03-16T11:13:11;99007.06;;;10.26;100.00
5595;BME280;1003;48.002;7.788;2023-03-16T11:15:46;99003.56;;;10.39;100.00
5595;BME280;1003;48.002;7.788;2023-03-16T11:18:28;98994.72;;;10.05;100.00
5595;BME280;1003;48.002;7.788;2023-03-16T11:20:57;98986.56;;;9.86;100.00
5595;BME280;1003;48.002;7.788;2023-03-16T11:23:31;98990.25;;;10.31;100.00
5595;BME280;1003;48.002;7.788;2023-03-16T11:26:04;98987.81;;;10.22;100.00
5595;BME280;1003;48.002;7.788;2023-03-16T11:28:38;98987.97;;;10.10;100.00
5595;BME280;1003;48.002;7.788;2023-03-16T11:31:19;98977.47;;;10.48;100.00
5595;BME280;1003;48.002;7.788;2023-03-16T11:33:50;98985.94;;;11.01;100.00
5595;BME280;1003;48.002;7.788;2023-03-16T11:36:36;98976.28;;;10.76;100.00
5595;BME280;1003;48.002;7.788;2023-03-16T11:39:14;98977.97;;;10.74;100.00
5595;BME280;1003;48.002;7.788;2023-03-16T11:42:19;98965.59;;;11.16;100.00
5595;BME280;1003;48.002;7.788;2023-03-16T11:44:57;98955.50;;;11.19;100.00
5595;BME280;1003;48.002;7.788;2023-03-16T11:47:58;98954.63;;;11.20;100.00
5595;BME280;1003;48.002;7.788;2023-03-16T11:50:44;98942.44;;;11.47;100.00
5595;BME280;1003;48.002;7.788;2023-03-16T11:53:31;98943.66;;;11.26;100.00
5595;BME280;1003;48.002;7.788;2023-03-16T11:56:14;98937.50;;;10.90;100.00
5595;BME280;1003;48.002;7.788;2023-03-16T11:59:01;98936.31;;;11.12;100.00
5595;BME280;1003;48.002;7.788;2023-03-16T12:01:47;98938.41;;;10.87;100.00
5595;BME280;1003;48.002;7.788;2023-03-16T12:04:35;98936.16;;;11.21;100.00
5595;BME280;1003;48.002;7.788;2023-03-16T12:07:32;98930.53;;;11.07;100.00
5595;BME280;1003;48.002;7.788;2023-03-16T12:10:21;98922.38;;;10.93;100.00
5595;BME280;1003;48.002;7.788;2023-03-16T12:13:03;98915.06;;;11.28;100.00
5595;BME280;1003;48.002;7.788;2023-03-16T12:15:41;98920.34;;;11.13;100.00
5595;BME280;1003;48.002;7.788;2023-03-16T12:18:18;98913.34;;;11.32;100.00
5595;BME280;1003;48.002;7.788;2023-03-16T12:20:53;98912.44;;;11.35;100.00
5595;BME280;1003;48.002;7.788;2023-03-16T12:23:29;98905.25;;;11.61;100.00
5595;BME280;1003;48.002;7.788;2023-03-16T12:26:00;98903.44;;;11.23;100.00
5595;BME280;1003;48.002;7.788;2023-03-16T12:28:29;98903.28;;;11.32;100.00
5595;BME280;1003;48.002;7.788;2023-03-16T12:31:09;98899.50;;;11.54;100.00
5595;BME280;1003;48.002;7.788;2023-03-16T12:34:00;98890.69;;;11.78;100.00
5595;BME280;1003;48.002;7.788;2023-03-16T12:36:51;98887.22;;;11.39;100.00
5595;BME280;1003;48.002;7.788;2023-03-16T12:39:38;98885.44;;;11.89;100.00
5595;BME280;1003;48.002;7.788;2023-03-16T12:42:24;98878.59;;;11.96;100.00
5595;BME280;1003;48.002;7.788;2023-03-16T12:45:03;98874.97;;;11.66;100.00
5595;BME280;1003;48.002;7.788;2023-03-16T12:47:45;98876.81;;;12.01;100.00
5595;BME280;1003;48.002;7.788;2023-03-16T12:50:19;98873.63;;;11.93;100.00
5595;BME280;1003;48.002;7.788;2023-03-16T12:52:49;98870.59;;;12.17;100.00
5595;BME280;1003;48.002;7.788;2023-03-16T12:55:19;98868.19;;;12.13;100.00
5595;BME280;1003;48.002;7.788;2023-03-16T12:57:49;98869.19;;;12.04;100.00
5595;BME280;1003;48.002;7.788;2023-03-16T13:00:18;98866.44;;;12.15;100.00
5595;BME280;1003;48.002;7.788;2023-03-16T13:02:53;98861.63;;;12.43;100.00
5595;BME280;1003;48.002;7.788;2023-03-16T13:05:30;98859.56;;;12.60;99.83
5595;BME280;1003;48.002;7.788;2023-03-16T13:08:09;98851.22;;;12.91;100.00
5595;BME280;1003;48.002;7.788;2023-03-16T13:10:37;98848.25;;;13.09;99.54
5595;BME280;1003;48.002;7.788;2023-03-16T13:13:10;98847.78;;;12.95;100.00
5595;BME280;1003;48.002;7.788;2023-03-16T13:15:40;98836.25;;;12.84;100.00
5595;BME280;1003;48.002;7.788;2023-03-16T13:18:22;98837.59;;;12.65;100.00
5595;BME280;1003;48.002;7.788;2023-03-16T13:20:55;98832.63;;;12.95;100.00
5595;BME280;1003;48.002;7.788;2023-03-16T13:23:25;98822.56;;;13.27;100.00
5595;BME280;1003;48.002;7.788;2023-03-16T13:26:13;98818.50;;;13.22;100.00
5595;BME280;1003;48.002;7.788;2023-03-16T13:28:48;98821.50;;;13.03;100.00
5595;BME280;1003;48.002;7.788;2023-03-16T13:31:23;98818.84;;;12.75;100.00
5595;BME280;1003;48.002;7.788;2023-03-16T13:33:54;98813.00;;;12.73;100.00
5595;BME280;1003;48.002;7.788;2023-03-16T13:36:27;98799.94;;;12.57;100.00